createdAt,value
2023-01-23T00:01:13.439Z,29.93
2023-01-23T00:03:40.184Z,25.87
2023-01-23T00:06:09.108Z,29.40
2023-01-23T00:08:37.742Z,27.20
2023-01-23T00:11:09.011Z,25.50
2023-01-23T00:13:36.752Z,28.60
2023-01-23T00:16:12.291Z,27.07
2023-01-23T00:18:39.681Z,27.73
2023-01-23T00:21:07.818Z,26.40
2023-01-23T00:23:34.908Z,27.37
2023-01-23T00:26:06.761Z,28.10
2023-01-23T00:28:34.522Z,24.40
2023-01-23T00:31:12.179Z,28.20
2023-01-23T00:33:40.027Z,27.33
2023-01-23T00:36:07.350Z,26.37
2023-01-23T00:38:34.659Z,27.50
2023-01-23T00:41:02.331Z,26.40
2023-01-23T00:43:30.263Z,27.73
2023-01-23T00:45:59.249Z,30.50
2023-01-23T00:48:26.502Z,27.60
2023-01-23T00:50:53.736Z,27.37
2023-01-23T00:53:20.891Z,27.40
2023-01-23T00:55:48.040Z,26.70
2023-01-23T00:58:15.067Z,27.70
2023-01-23T01:00:42.234Z,25.53
2023-01-23T01:03:09.046Z,24.80
2023-01-23T01:05:36.441Z,24.90
2023-01-23T01:08:03.455Z,26.47
2023-01-23T01:10:32.745Z,26.50
2023-01-23T01:13:01.838Z,25.17
2023-01-23T01:15:29.080Z,26.57
2023-01-23T01:17:56.128Z,29.50
2023-01-23T01:20:23.868Z,27.03
2023-01-23T01:22:51.118Z,28.90
2023-01-23T01:25:18.646Z,31.60
2023-01-23T01:27:45.861Z,29.30
2023-01-23T01:30:13.631Z,27.53
2023-01-23T01:32:41.506Z,26.40
2023-01-23T01:35:09.247Z,27.63
2023-01-23T01:37:40.193Z,25.57
2023-01-23T01:40:08.629Z,25.97
2023-01-23T01:42:49.594Z,26.10
2023-01-23T01:45:35.210Z,24.80
2023-01-23T01:48:02.315Z,24.37
2023-01-23T01:50:29.443Z,28.73
2023-01-23T01:52:56.546Z,26.33
2023-01-23T01:55:23.696Z,27.43
2023-01-23T01:57:56.965Z,30.47
2023-01-23T02:00:24.026Z,28.23
2023-01-23T02:02:58.870Z,26.87
2023-01-23T02:05:27.533Z,27.20
2023-01-23T02:07:57.202Z,27.67
2023-01-23T02:10:23.885Z,26.87
2023-01-23T02:12:52.593Z,26.37
2023-01-23T02:15:22.505Z,27.73
2023-01-23T02:17:51.371Z,27.00
2023-01-23T02:20:21.790Z,27.57
2023-01-23T02:23:08.787Z,26.63
2023-01-23T02:25:42.057Z,28.67
2023-01-23T02:28:10.103Z,26.53
2023-01-23T02:30:39.937Z,27.87
2023-01-23T02:33:22.392Z,25.80
2023-01-23T02:35:49.223Z,28.33
2023-01-23T02:38:16.966Z,27.33
2023-01-23T02:40:44.056Z,28.73
2023-01-23T02:43:12.865Z,27.93
2023-01-23T02:45:40.084Z,26.00
2023-01-23T02:48:08.173Z,27.40
2023-01-23T02:50:35.267Z,24.90
2023-01-23T02:53:02.353Z,25.27
2023-01-23T02:55:33.207Z,27.47
2023-01-23T02:58:19.486Z,25.20
2023-01-23T03:00:47.433Z,25.40
2023-01-23T03:03:15.894Z,23.30
2023-01-23T03:05:42.612Z,25.17
2023-01-23T03:08:09.729Z,26.93
2023-01-23T03:10:36.391Z,26.93
2023-01-23T03:13:07.085Z,27.83
2023-01-23T03:15:35.339Z,28.70
2023-01-23T03:18:02.489Z,29.33
2023-01-23T03:20:29.568Z,27.97
2023-01-23T03:22:56.816Z,29.37
2023-01-23T03:25:24.042Z,26.77
2023-01-23T03:27:50.716Z,33.23
2023-01-23T03:30:17.709Z,27.67
2023-01-23T03:32:45.263Z,32.87
2023-01-23T03:35:14.324Z,27.33
2023-01-23T03:37:41.468Z,29.20
2023-01-23T03:40:28.546Z,29.13
2023-01-23T03:42:55.192Z,28.83
2023-01-23T03:45:22.256Z,27.80
2023-01-23T03:47:49.293Z,28.87
2023-01-23T03:50:16.549Z,28.07
2023-01-23T03:52:43.584Z,26.57
2023-01-23T03:55:10.671Z,26.27
2023-01-23T03:57:37.757Z,28.40
2023-01-23T04:00:05.689Z,26.53
2023-01-23T04:02:33.420Z,27.47
2023-01-23T04:05:00.480Z,25.53
2023-01-23T04:07:27.528Z,27.30
2023-01-23T04:09:54.622Z,25.90
2023-01-23T04:12:21.376Z,27.93
2023-01-23T04:14:48.465Z,24.93
2023-01-23T04:17:15.540Z,24.13
2023-01-23T04:19:42.653Z,25.00
2023-01-23T04:22:10.428Z,26.83
2023-01-23T04:24:37.481Z,28.67
2023-01-23T04:27:04.628Z,28.10
2023-01-23T04:29:31.795Z,31.70
2023-01-23T04:31:58.897Z,26.90
2023-01-23T04:34:26.038Z,29.00
2023-01-23T04:36:53.126Z,32.30
2023-01-23T04:39:20.188Z,28.73
2023-01-23T04:41:46.899Z,28.73
2023-01-23T04:44:22.956Z,27.20
2023-01-23T04:46:50.816Z,29.83
2023-01-23T04:49:19.327Z,25.33
2023-01-23T04:51:48.058Z,26.53
2023-01-23T04:54:15.270Z,26.33
2023-01-23T04:56:42.382Z,28.77
2023-01-23T04:59:09.459Z,26.50
2023-01-23T05:01:37.002Z,27.73
2023-01-23T05:04:04.597Z,26.07
2023-01-23T05:06:31.775Z,26.63
2023-01-23T05:08:58.839Z,26.73
2023-01-23T05:11:25.978Z,26.43
2023-01-23T05:13:53.082Z,27.23
2023-01-23T05:16:20.132Z,28.40
2023-01-23T05:18:47.183Z,29.87
2023-01-23T05:21:13.891Z,28.80
2023-01-23T05:23:40.534Z,27.27
2023-01-23T05:26:07.625Z,31.10
2023-01-23T05:28:34.679Z,29.80
2023-01-23T05:31:01.840Z,30.47
2023-01-23T05:33:28.994Z,31.90
2023-01-23T05:35:59.363Z,32.40
2023-01-23T05:38:26.492Z,28.27
2023-01-23T05:40:53.874Z,28.03
2023-01-23T05:43:20.956Z,29.90
2023-01-23T05:45:48.185Z,31.53
2023-01-23T05:48:15.427Z,28.77
2023-01-23T05:50:42.501Z,29.37
2023-01-23T05:53:09.265Z,29.83
2023-01-23T05:55:38.124Z,31.10
2023-01-23T05:58:05.185Z,30.40
2023-01-23T06:00:32.966Z,31.60
2023-01-23T06:03:01.007Z,27.97
2023-01-23T06:05:28.103Z,30.50
2023-01-23T06:07:55.300Z,28.13
2023-01-23T06:10:22.336Z,27.87
2023-01-23T06:12:49.435Z,28.03
2023-01-23T06:15:16.096Z,27.73
2023-01-23T06:17:43.246Z,26.60
2023-01-23T06:20:12.183Z,27.70
2023-01-23T06:22:39.264Z,27.37
2023-01-23T06:25:06.662Z,25.17
2023-01-23T06:27:33.495Z,26.40
2023-01-23T06:30:00.588Z,25.63
2023-01-23T06:32:27.712Z,25.03
2023-01-23T06:34:54.771Z,26.13
2023-01-23T06:37:21.454Z,26.67
2023-01-23T06:39:48.513Z,26.43
2023-01-23T06:42:15.184Z,26.43
2023-01-23T06:44:43.324Z,25.80
2023-01-23T06:47:10.512Z,25.93
2023-01-23T06:49:38.300Z,24.67
2023-01-23T06:52:05.519Z,25.07
2023-01-23T06:54:32.213Z,26.63
2023-01-23T06:56:58.890Z,26.07
2023-01-23T06:59:25.999Z,25.10
2023-01-23T07:01:53.065Z,26.27
2023-01-23T07:04:20.215Z,26.87
2023-01-23T07:06:47.309Z,24.67
2023-01-23T07:09:14.370Z,22.13
2023-01-23T07:11:41.123Z,21.23
2023-01-23T07:14:08.249Z,19.97
2023-01-23T07:16:36.283Z,23.37
2023-01-23T07:19:05.190Z,20.00
2023-01-23T07:21:32.551Z,20.77
2023-01-23T07:23:59.499Z,19.57
2023-01-23T07:26:26.690Z,21.53
2023-01-23T07:28:53.829Z,19.57
2023-01-23T07:31:21.014Z,17.80
2023-01-23T07:33:48.131Z,19.17
2023-01-23T07:36:15.326Z,18.50
2023-01-23T07:38:42.049Z,16.67
2023-01-23T07:41:09.533Z,16.73
2023-01-23T07:43:36.632Z,17.37
2023-01-23T07:46:03.778Z,19.10
2023-01-23T07:48:30.570Z,20.03
2023-01-23T07:50:57.773Z,17.33
2023-01-23T07:53:24.454Z,17.13
2023-01-23T07:55:51.114Z,17.27
2023-01-23T07:58:18.199Z,16.77
2023-01-23T08:00:45.784Z,16.63
2023-01-23T08:03:12.928Z,20.00
2023-01-23T08:05:39.928Z,17.60
2023-01-23T08:08:13.388Z,19.33
2023-01-23T08:10:41.075Z,16.90
2023-01-23T08:13:08.225Z,17.93
2023-01-23T08:15:35.365Z,17.73
2023-01-23T08:18:02.035Z,16.63
2023-01-23T08:20:29.243Z,16.57
2023-01-23T08:22:57.424Z,15.60
2023-01-23T08:25:24.069Z,18.07
2023-01-23T08:27:51.165Z,17.73
2023-01-23T08:30:18.312Z,17.50
2023-01-23T08:32:45.097Z,17.47
2023-01-23T08:35:12.163Z,18.67
2023-01-23T08:37:38.847Z,19.23
2023-01-23T08:40:06.180Z,19.30
2023-01-23T08:42:33.256Z,19.63
2023-01-23T08:45:00.346Z,18.60
2023-01-23T08:47:27.533Z,16.97
2023-01-23T08:49:54.630Z,17.17
2023-01-23T08:52:21.731Z,20.27
2023-01-23T08:54:48.878Z,19.43
2023-01-23T08:57:15.938Z,17.67
2023-01-23T08:59:44.296Z,18.83
2023-01-23T09:02:12.832Z,17.83
2023-01-23T09:04:40.162Z,18.70
2023-01-23T09:07:07.351Z,17.70
2023-01-23T09:09:34.231Z,17.87
2023-01-23T09:12:01.376Z,19.77
2023-01-23T09:14:28.126Z,20.10
2023-01-23T09:16:55.489Z,18.60
2023-01-23T09:19:22.192Z,19.10
2023-01-23T09:21:49.281Z,19.20
2023-01-23T09:24:17.221Z,19.43
2023-01-23T09:26:44.302Z,20.27
2023-01-23T09:29:10.984Z,20.47
2023-01-23T09:31:38.107Z,20.87
2023-01-23T09:34:04.971Z,18.27
2023-01-23T09:36:42.524Z,19.17
2023-01-23T09:39:10.179Z,22.03
2023-01-23T09:41:39.147Z,21.07
2023-01-23T09:44:10.102Z,20.43
2023-01-23T09:46:37.152Z,22.37
2023-01-23T09:49:10.146Z,22.33
2023-01-23T09:51:56.589Z,20.23
2023-01-23T09:54:44.505Z,20.93
2023-01-23T09:57:19.523Z,22.40
2023-01-23T10:00:01.560Z,20.20
2023-01-23T10:02:29.563Z,19.27
2023-01-23T10:04:58.352Z,17.80
2023-01-23T10:07:38.124Z,18.50
2023-01-23T10:10:20.314Z,20.83
2023-01-23T10:13:09.250Z,19.07
2023-01-23T10:16:02.844Z,18.90
2023-01-23T10:18:48.244Z,19.30
2023-01-23T10:21:26.979Z,17.40
2023-01-23T10:24:01.799Z,19.20
2023-01-23T10:26:31.763Z,18.10
2023-01-23T10:29:02.572Z,19.30
2023-01-23T10:31:33.541Z,17.90
2023-01-23T10:34:05.303Z,16.87
2023-01-23T10:36:47.532Z,17.50
2023-01-23T10:39:23.422Z,17.07
2023-01-23T10:41:54.305Z,17.10
2023-01-23T10:44:28.054Z,18.37
2023-01-23T10:46:57.430Z,17.13
2023-01-23T10:49:35.582Z,16.87
2023-01-23T10:52:02.948Z,16.23
2023-01-23T10:54:32.372Z,20.20
2023-01-23T10:57:08.701Z,16.73
2023-01-23T10:59:54.236Z,16.40
2023-01-23T11:02:32.848Z,17.50
2023-01-23T11:05:00.218Z,14.23
2023-01-23T11:07:29.051Z,15.60
2023-01-23T11:09:57.113Z,17.07
2023-01-23T11:12:25.859Z,14.40
2023-01-23T11:15:10.859Z,16.67
2023-01-23T11:17:39.156Z,18.77
2023-01-23T11:20:32.038Z,17.07
2023-01-23T11:23:03.431Z,16.57
2023-01-23T11:25:38.078Z,14.57
2023-01-23T11:28:35.384Z,14.57
2023-01-23T11:31:13.940Z,15.53
2023-01-23T11:33:41.995Z,11.97
2023-01-23T11:36:18.007Z,15.50
2023-01-23T11:38:53.250Z,16.37
2023-01-23T11:41:24.409Z,14.87
2023-01-23T11:43:51.508Z,12.30
2023-01-23T11:46:24.557Z,15.20
2023-01-23T11:49:08.127Z,13.47
2023-01-23T11:51:53.331Z,13.23
2023-01-23T11:54:26.660Z,13.70
2023-01-23T11:56:53.777Z,12.60
2023-01-23T11:59:39.699Z,12.43
2023-01-23T12:02:12.938Z,13.40
2023-01-23T12:04:40.212Z,12.70
2023-01-23T12:07:07.268Z,11.83
2023-01-23T12:10:02.900Z,13.27
2023-01-23T12:12:29.968Z,7.93
2023-01-23T12:15:03.351Z,8.43
2023-01-23T12:17:49.204Z,7.50
2023-01-23T12:20:28.437Z,9.23
2023-01-23T12:23:14.110Z,10.20
2023-01-23T12:25:45.478Z,6.50
2023-01-23T12:28:47.196Z,6.67
2023-01-23T12:31:20.194Z,6.60
2023-01-23T12:34:12.325Z,6.30
2023-01-23T12:37:06.252Z,5.70
2023-01-23T12:39:34.301Z,5.93
2023-01-23T12:42:04.709Z,5.97
2023-01-23T12:44:34.763Z,6.53
2023-01-23T12:47:01.872Z,7.37
2023-01-23T12:49:49.270Z,6.63
2023-01-23T12:52:15.895Z,6.67
2023-01-23T12:54:49.208Z,6.20
2023-01-23T12:57:46.212Z,6.00
2023-01-23T13:00:43.412Z,6.13
2023-01-23T13:03:55.241Z,5.93
2023-01-23T13:06:25.148Z,6.20
2023-01-23T13:09:05.306Z,6.13
2023-01-23T13:11:40.897Z,6.53
2023-01-23T13:14:32.864Z,5.63
2023-01-23T13:17:03.988Z,7.10
2023-01-23T13:19:50.948Z,5.97
2023-01-23T13:22:31.463Z,5.63
2023-01-23T13:25:10.091Z,7.23
2023-01-23T13:27:37.150Z,5.17
2023-01-23T13:30:06.633Z,6.47
2023-01-23T13:32:33.830Z,7.83
2023-01-23T13:35:02.042Z,5.83
2023-01-23T13:37:34.129Z,5.97
2023-01-23T13:40:15.185Z,5.60
2023-01-23T13:42:41.900Z,6.90
2023-01-23T13:45:27.047Z,6.33
2023-01-23T14:22:11.745Z,6.10
2023-01-23T14:30:18.842Z,5.80
2023-01-23T14:32:46.352Z,5.80
2023-01-23T14:35:17.868Z,6.80
2023-01-23T14:37:45.980Z,6.10
2023-01-23T14:40:26.517Z,8.00
2023-01-23T14:42:58.425Z,6.07
2023-01-23T14:45:28.289Z,7.53
2023-01-23T14:48:05.195Z,8.50
2023-01-23T14:50:33.075Z,8.87
2023-01-23T14:53:20.523Z,6.57
2023-01-23T14:55:49.831Z,7.57
2023-01-23T14:58:22.919Z,10.33
2023-01-23T15:00:50.421Z,12.60
2023-01-23T15:03:34.985Z,12.33
2023-01-23T15:06:05.845Z,12.60
2023-01-23T15:08:34.276Z,12.30
2023-01-23T15:11:03.072Z,12.50
2023-01-23T15:13:35.923Z,15.43
2023-01-23T15:16:04.406Z,12.97
2023-01-23T15:18:33.526Z,16.27
2023-01-23T15:21:05.027Z,12.67
2023-01-23T15:23:33.818Z,12.53
2023-01-23T15:26:10.671Z,14.73
2023-01-23T15:28:56.035Z,15.47
2023-01-23T15:31:26.225Z,16.77
2023-01-23T15:33:53.939Z,14.67
2023-01-23T15:36:27.111Z,16.37
2023-01-23T15:38:55.219Z,17.83
2023-01-23T15:41:34.497Z,15.90
2023-01-23T15:44:02.081Z,16.33
2023-01-23T15:46:29.171Z,16.17
2023-01-23T15:48:56.308Z,16.47
2023-01-23T15:51:23.405Z,17.00
2023-01-23T15:53:50.525Z,17.90
2023-01-23T15:56:25.996Z,16.20
2023-01-23T15:58:52.714Z,16.63
2023-01-23T16:01:20.014Z,15.87
2023-01-23T16:03:47.189Z,16.17
2023-01-23T16:06:21.693Z,15.80
2023-01-23T16:08:55.072Z,15.80
2023-01-23T16:11:29.667Z,18.50
2023-01-23T16:13:56.366Z,18.23
2023-01-23T16:16:23.054Z,16.20
2023-01-23T16:18:50.185Z,18.83
2023-01-23T16:21:19.342Z,16.43
2023-01-23T16:23:47.831Z,16.07
2023-01-23T16:26:22.375Z,17.00
2023-01-23T16:28:49.512Z,17.63
2023-01-23T16:31:17.296Z,18.30
2023-01-23T16:33:44.283Z,16.00
2023-01-23T16:36:14.163Z,15.60
2023-01-23T16:38:43.079Z,17.77
2023-01-23T16:41:10.202Z,16.93
2023-01-23T16:43:37.516Z,20.53
2023-01-23T16:46:04.440Z,15.27
2023-01-23T16:48:31.550Z,17.03
2023-01-23T16:51:34.326Z,15.87
2023-01-23T16:54:11.197Z,16.20
2023-01-23T16:56:45.468Z,17.07
2023-01-23T16:59:16.687Z,16.43
2023-01-23T17:01:45.673Z,16.70
2023-01-23T17:04:15.053Z,17.10
2023-01-23T17:06:41.822Z,17.87
2023-01-23T17:09:09.655Z,15.63
2023-01-23T17:11:42.223Z,16.47
2023-01-23T17:14:25.353Z,16.30
2023-01-23T17:16:52.877Z,15.80
2023-01-23T17:19:23.128Z,15.07
2023-01-23T17:21:51.774Z,12.40
2023-01-23T17:24:18.944Z,16.47
2023-01-23T17:26:46.096Z,14.83
2023-01-23T17:29:13.333Z,14.20
2023-01-23T17:31:40.996Z,14.67
2023-01-23T17:34:10.608Z,14.10
2023-01-23T17:36:37.696Z,13.20
2023-01-23T17:39:04.602Z,13.27
2023-01-23T17:41:33.152Z,13.70
2023-01-23T17:44:00.320Z,12.97
2023-01-23T17:46:28.507Z,15.90
2023-01-23T17:48:56.432Z,13.53
2023-01-23T17:51:24.357Z,13.47
2023-01-23T17:53:51.521Z,12.53
2023-01-23T17:56:19.130Z,14.50
2023-01-23T17:58:46.304Z,13.07
2023-01-23T18:01:22.437Z,14.83
2023-01-23T18:03:53.009Z,13.17
2023-01-23T18:06:19.935Z,14.73
2023-01-23T18:08:47.127Z,15.53
2023-01-23T18:11:24.534Z,13.43
2023-01-23T18:13:51.606Z,11.53
2023-01-23T18:16:25.226Z,13.90
2023-01-23T18:19:00.639Z,16.00
2023-01-23T18:21:28.490Z,14.50
2023-01-23T18:23:55.893Z,12.90
2023-01-23T18:26:32.029Z,12.70
2023-01-23T18:29:04.079Z,13.63
2023-01-23T18:31:39.032Z,13.53
2023-01-23T18:34:12.483Z,14.80
2023-01-23T18:36:58.619Z,15.40
2023-01-23T18:39:28.709Z,14.33
2023-01-23T18:42:15.672Z,15.97
2023-01-23T18:44:47.586Z,11.23
2023-01-23T18:47:17.872Z,11.13
2023-01-23T18:49:45.278Z,13.23
2023-01-23T18:52:17.195Z,11.90
2023-01-23T18:55:01.769Z,12.13
2023-01-23T18:57:52.790Z,12.03
2023-01-23T19:00:24.647Z,13.10
2023-01-23T19:02:55.883Z,13.50
2023-01-23T19:05:40.922Z,14.87
2023-01-23T19:08:15.854Z,12.37
2023-01-23T19:10:48.868Z,12.77
2023-01-23T19:13:19.037Z,13.83
2023-01-23T19:16:11.866Z,13.10
2023-01-23T19:18:53.450Z,11.63
2023-01-23T19:21:25.041Z,13.80
2023-01-23T19:23:54.947Z,14.80
2023-01-23T19:26:27.826Z,14.03
2023-01-23T19:28:55.915Z,10.73
2023-01-23T19:31:27.909Z,12.13
2023-01-23T19:33:55.424Z,12.53
2023-01-23T19:36:23.198Z,11.70
2023-01-23T19:38:52.587Z,11.10
2023-01-23T19:41:20.981Z,12.60
2023-01-23T19:43:55.730Z,10.83
2023-01-23T19:46:25.873Z,11.60
2023-01-23T19:48:52.674Z,11.87
2023-01-23T19:51:21.778Z,11.87
2023-01-23T19:53:48.964Z,12.87
2023-01-23T19:56:20.295Z,13.70
2023-01-23T19:58:47.905Z,16.30
2023-01-23T20:01:23.220Z,15.07
2023-01-23T20:03:50.412Z,11.73
2023-01-23T20:06:17.659Z,13.93
2023-01-23T20:08:44.780Z,13.70
2023-01-23T20:11:12.297Z,13.37
2023-01-23T20:13:43.583Z,9.93
2023-01-23T20:16:14.743Z,11.87
2023-01-23T20:18:42.385Z,12.80
2023-01-23T20:21:09.591Z,11.30
2023-01-23T20:23:36.266Z,10.83
2023-01-23T20:26:03.362Z,9.93
2023-01-23T20:28:30.857Z,10.33
2023-01-23T20:30:58.053Z,10.53
2023-01-23T20:33:25.392Z,12.23
2023-01-23T20:35:53.408Z,11.37
2023-01-23T20:38:21.648Z,9.80
2023-01-23T20:40:49.434Z,8.23
2023-01-23T20:43:17.218Z,11.77
2023-01-23T20:45:51.008Z,9.87
2023-01-23T20:48:18.899Z,10.53
2023-01-23T20:50:46.223Z,10.27
2023-01-23T20:53:32.151Z,11.17
2023-01-23T20:56:01.431Z,9.83
2023-01-23T20:58:47.099Z,10.57
2023-01-23T21:01:14.665Z,13.73
2023-01-23T21:03:41.850Z,11.43
2023-01-23T21:06:09.346Z,10.63
2023-01-23T21:08:36.838Z,11.03
2023-01-23T21:11:23.865Z,12.73
2023-01-23T21:13:53.459Z,10.97
2023-01-23T21:16:20.647Z,10.87
2023-01-23T21:18:48.240Z,11.80
2023-01-23T21:21:16.466Z,12.00
2023-01-23T21:23:46.593Z,13.13
2023-01-23T21:26:13.699Z,12.43
2023-01-23T21:28:40.421Z,11.90
2023-01-23T21:31:08.636Z,11.93
2023-01-23T21:33:35.687Z,13.43
2023-01-23T21:36:02.971Z,13.87
2023-01-23T21:38:30.103Z,16.17
2023-01-23T21:40:56.786Z,13.90
2023-01-23T21:43:23.541Z,14.07
2023-01-23T21:45:51.450Z,12.30
2023-01-23T21:48:18.098Z,11.93
2023-01-23T21:50:45.163Z,13.77
2023-01-23T21:53:11.823Z,12.87
2023-01-23T21:55:38.881Z,14.30
2023-01-23T21:58:05.520Z,14.27
2023-01-23T22:00:51.218Z,13.43
2023-01-23T22:03:18.445Z,14.93
2023-01-23T22:05:45.546Z,11.43
2023-01-23T22:08:12.314Z,13.73
2023-01-23T22:10:39.401Z,11.67
2023-01-23T22:13:06.481Z,13.87
2023-01-23T22:15:33.574Z,12.73
2023-01-23T22:18:00.654Z,13.17
2023-01-23T22:20:27.730Z,13.80
2023-01-23T22:22:54.833Z,12.83
2023-01-23T22:25:21.940Z,11.87
2023-01-23T22:27:49.207Z,13.63
2023-01-23T22:30:16.382Z,16.60
2023-01-23T22:32:43.521Z,17.07
2023-01-23T22:35:10.984Z,13.60
2023-01-23T22:37:40.034Z,14.47
2023-01-23T22:40:08.520Z,12.67
2023-01-23T22:42:36.025Z,12.10
2023-01-23T22:45:03.844Z,14.23
2023-01-23T22:47:30.887Z,12.17
2023-01-23T22:49:57.971Z,12.63
2023-01-23T22:52:24.710Z,15.60
2023-01-23T22:54:51.755Z,11.70
2023-01-23T22:57:18.411Z,12.60
2023-01-23T22:59:45.056Z,12.33
2023-01-23T23:02:12.111Z,11.23
2023-01-23T23:04:39.220Z,13.17
2023-01-23T23:07:06.455Z,12.20
2023-01-23T23:09:33.511Z,12.20
2023-01-23T23:12:00.633Z,10.87
2023-01-23T23:14:27.741Z,10.20
2023-01-23T23:16:54.803Z,11.87
2023-01-23T23:19:21.471Z,11.30
2023-01-23T23:21:48.555Z,11.10
2023-01-23T23:24:15.645Z,10.67
2023-01-23T23:26:42.830Z,11.73
2023-01-23T23:29:09.919Z,12.60
2023-01-23T23:31:36.717Z,9.77
2023-01-23T23:34:03.999Z,11.87
2023-01-23T23:36:31.181Z,11.07
2023-01-23T23:38:58.279Z,10.20
2023-01-23T23:41:25.061Z,9.43
2023-01-23T23:43:52.155Z,9.27
2023-01-23T23:46:19.473Z,8.87
2023-01-23T23:48:47.953Z,9.80
2023-01-23T23:51:16.710Z,10.03
2023-01-23T23:53:43.350Z,8.83
2023-01-23T23:56:11.050Z,10.47
2023-01-23T23:58:38.773Z,10.90
